createdAt,value
2022-09-23T00:02:02.608Z,11.37
2022-09-23T00:04:59.269Z,11.20
2022-09-23T00:07:57.231Z,11.21
2022-09-23T00:10:54.354Z,11.25
2022-09-23T00:13:53.217Z,11.36
2022-09-23T00:16:50.584Z,11.32
2022-09-23T00:19:48.376Z,11.34
2022-09-23T00:22:45.632Z,11.39
2022-09-23T00:25:42.518Z,11.35
2022-09-23T00:28:39.646Z,11.27
2022-09-23T00:31:36.844Z,10.91
2022-09-23T00:34:33.937Z,11.23
2022-09-23T00:37:31.560Z,11.29
2022-09-23T00:40:28.419Z,11.86
2022-09-23T00:43:43.360Z,11.77
2022-09-23T00:46:41.316Z,11.45
2022-09-23T00:49:38.878Z,11.25
2022-09-23T00:52:36.829Z,11.41
2022-09-23T00:55:39.486Z,11.37
2022-09-23T00:58:37.467Z,11.37
2022-09-23T01:01:34.671Z,11.46
2022-09-23T01:04:31.349Z,11.37
2022-09-23T01:07:28.328Z,11.29
2022-09-23T01:10:25.773Z,11.24
2022-09-23T01:13:59.601Z,11.25
2022-09-23T01:17:22.869Z,11.28
2022-09-23T01:20:28.682Z,11.10
2022-09-23T01:24:08.949Z,11.04
2022-09-23T01:27:15.467Z,11.01
2022-09-23T01:30:33.464Z,11.03
2022-09-23T01:33:56.160Z,11.00
2022-09-23T01:36:53.096Z,10.98
2022-09-23T01:40:06.270Z,11.07
2022-09-23T01:43:09.528Z,11.11
2022-09-23T01:46:28.063Z,11.09
2022-09-23T01:49:34.460Z,10.96
2022-09-23T01:52:38.951Z,11.00
2022-09-23T01:55:39.513Z,10.99
2022-09-23T01:58:46.873Z,11.03
2022-09-23T02:01:46.854Z,11.05
2022-09-23T02:04:50.503Z,11.15
2022-09-23T02:08:08.802Z,11.15
2022-09-23T02:11:08.799Z,11.13
2022-09-23T02:14:17.836Z,11.21
2022-09-23T02:17:17.341Z,11.02
2022-09-23T02:20:15.886Z,10.89
2022-09-23T02:23:14.570Z,10.94
2022-09-23T02:26:11.914Z,10.93
2022-09-23T02:29:28.370Z,10.96
2022-09-23T02:32:42.914Z,10.92
2022-09-23T02:35:44.153Z,10.91
2022-09-23T02:38:52.846Z,10.83
2022-09-23T02:42:21.061Z,10.88
2022-09-23T02:45:18.646Z,10.91
2022-09-23T02:48:22.286Z,10.90
2022-09-23T02:51:19.694Z,10.87
2022-09-23T02:54:18.453Z,10.93
2022-09-23T02:57:15.506Z,10.98
2022-09-23T03:00:13.272Z,10.99
2022-09-23T03:03:27.822Z,10.96
2022-09-23T03:06:39.474Z,10.88
2022-09-23T03:09:54.794Z,10.80
2022-09-23T03:13:12.305Z,10.87
2022-09-23T03:16:18.461Z,10.74
2022-09-23T03:19:27.531Z,10.84
2022-09-23T03:22:33.134Z,10.88
2022-09-23T03:25:31.811Z,10.75
2022-09-23T03:28:28.733Z,10.64
2022-09-23T03:31:25.700Z,10.62
2022-09-23T03:34:28.007Z,10.53
2022-09-23T03:37:55.888Z,10.52
2022-09-23T03:40:53.356Z,10.62
2022-09-23T03:43:53.298Z,10.70
2022-09-23T03:46:50.792Z,10.76
2022-09-23T03:49:48.640Z,10.91
2022-09-23T03:52:46.449Z,11.02
2022-09-23T03:55:47.186Z,10.90
2022-09-23T03:58:46.530Z,10.94
2022-09-23T04:01:46.170Z,11.05
2022-09-23T04:04:44.121Z,11.07
2022-09-23T04:07:42.455Z,11.02
2022-09-23T04:10:41.613Z,10.93
2022-09-23T04:13:38.634Z,10.84
2022-09-23T04:16:35.671Z,10.71
2022-09-23T04:19:32.793Z,10.79
2022-09-23T04:22:29.636Z,10.79
2022-09-23T04:25:26.650Z,10.66
2022-09-23T04:28:23.566Z,10.55
2022-09-23T04:31:20.392Z,10.48
2022-09-23T04:34:18.383Z,10.47
2022-09-23T04:37:15.861Z,10.58
2022-09-23T04:40:12.653Z,10.66
2022-09-23T04:43:13.423Z,10.69
2022-09-23T04:46:11.641Z,10.66
2022-09-23T04:49:08.990Z,10.55
2022-09-23T04:52:05.800Z,10.57
2022-09-23T04:55:02.511Z,10.66
2022-09-23T04:57:59.913Z,10.57
2022-09-23T05:01:04.959Z,10.56
2022-09-23T05:04:05.270Z,10.59
2022-09-23T05:07:03.566Z,10.47
2022-09-23T05:10:00.794Z,10.50
2022-09-23T05:12:58.896Z,10.57
2022-09-23T05:16:03.873Z,10.79
2022-09-23T05:19:00.455Z,10.84
2022-09-23T05:21:58.009Z,10.87
2022-09-23T05:24:54.559Z,10.87
2022-09-23T05:27:52.111Z,10.78
2022-09-23T05:30:51.910Z,10.72
2022-09-23T05:33:52.045Z,10.72
2022-09-23T05:36:48.747Z,10.72
2022-09-23T05:39:45.814Z,10.88
2022-09-23T05:42:42.693Z,10.93
2022-09-23T05:45:39.718Z,10.89
2022-09-23T05:48:36.970Z,10.81
2022-09-23T05:51:34.390Z,10.82
2022-09-23T05:54:31.753Z,10.72
2022-09-23T05:57:29.399Z,10.71
2022-09-23T06:00:26.421Z,10.70
2022-09-23T06:03:23.959Z,10.75
2022-09-23T06:06:23.394Z,11.13
2022-09-23T06:09:20.939Z,11.01
2022-09-23T06:12:20.011Z,11.03
2022-09-23T06:15:16.977Z,10.98
2022-09-23T06:18:13.783Z,10.89
2022-09-23T06:21:13.396Z,11.04
2022-09-23T06:24:15.430Z,11.27
2022-09-23T06:27:15.110Z,11.19
2022-09-23T06:30:12.623Z,11.26
2022-09-23T06:33:10.189Z,11.24
2022-09-23T06:36:08.134Z,11.30
2022-09-23T06:39:04.867Z,11.31
2022-09-23T06:42:01.892Z,11.34
2022-09-23T06:44:59.400Z,11.44
2022-09-23T06:47:57.907Z,11.50
2022-09-23T06:50:54.542Z,11.52
2022-09-23T06:53:52.574Z,11.58
2022-09-23T06:56:49.792Z,11.69
2022-09-23T06:59:46.757Z,11.86
2022-09-23T07:02:43.824Z,12.19
2022-09-23T07:05:42.140Z,12.16
2022-09-23T07:08:42.024Z,12.29
2022-09-23T07:11:40.244Z,12.43
2022-09-23T07:14:37.946Z,12.49
2022-09-23T07:17:35.107Z,12.34
2022-09-23T07:20:32.153Z,12.48
2022-09-23T07:23:28.556Z,12.58
2022-09-23T07:26:26.071Z,12.89
2022-09-23T07:29:22.824Z,13.20
2022-09-23T07:32:20.041Z,13.16
2022-09-23T07:35:17.118Z,13.34
2022-09-23T07:38:13.713Z,13.68
2022-09-23T07:41:11.809Z,13.83
2022-09-23T07:44:11.665Z,13.68
2022-09-23T07:47:08.585Z,13.88
2022-09-23T07:50:08.732Z,14.19
2022-09-23T07:53:08.638Z,14.22
2022-09-23T07:56:06.617Z,14.55
2022-09-23T07:59:05.281Z,14.69
2022-09-23T08:02:02.697Z,14.84
2022-09-23T08:04:59.790Z,15.18
2022-09-23T08:07:56.911Z,15.19
2022-09-23T08:11:01.195Z,15.57
2022-09-23T08:13:57.662Z,15.72
2022-09-23T08:16:54.883Z,15.53
2022-09-23T08:19:51.926Z,15.35
2022-09-23T08:22:50.941Z,15.44
2022-09-23T08:25:48.240Z,15.60
2022-09-23T08:28:45.662Z,15.80
2022-09-23T08:31:43.086Z,15.94
2022-09-23T08:34:40.076Z,16.09
2022-09-23T08:37:37.081Z,16.04
2022-09-23T08:40:35.672Z,15.98
2022-09-23T08:43:34.116Z,15.95
2022-09-23T08:46:37.723Z,16.04
2022-09-23T08:50:01.498Z,16.07
2022-09-23T08:53:01.427Z,16.03
2022-09-23T08:55:59.632Z,16.04
2022-09-23T08:59:02.358Z,16.02
2022-09-23T09:02:01.011Z,15.99
2022-09-23T09:05:00.399Z,16.08
2022-09-23T09:07:58.432Z,16.17
2022-09-23T09:10:58.185Z,16.27
2022-09-23T09:14:01.209Z,16.37
2022-09-23T09:17:02.019Z,16.57
2022-09-23T09:20:23.334Z,16.90
2022-09-23T09:23:28.476Z,16.86
2022-09-23T09:26:30.487Z,17.01
2022-09-23T09:29:35.269Z,16.93
2022-09-23T09:32:46.259Z,17.08
2022-09-23T09:35:54.465Z,16.97
2022-09-23T09:38:53.366Z,16.96
2022-09-23T09:41:52.007Z,17.08
2022-09-23T09:44:58.690Z,17.17
2022-09-23T09:48:17.634Z,17.26
2022-09-23T09:51:20.488Z,17.28
2022-09-23T09:54:23.422Z,17.27
2022-09-23T09:57:35.315Z,17.31
2022-09-23T10:00:52.747Z,17.25
2022-09-23T10:03:54.314Z,17.24
2022-09-23T10:07:07.292Z,17.05
2022-09-23T10:10:31.793Z,17.03
2022-09-23T10:13:30.236Z,17.04
2022-09-23T10:16:27.709Z,16.94
2022-09-23T10:19:27.177Z,16.84
2022-09-23T10:22:26.365Z,16.94
2022-09-23T10:25:27.625Z,17.04
2022-09-23T10:28:32.456Z,17.33
2022-09-23T10:31:33.767Z,17.45
2022-09-23T10:34:31.009Z,17.41
2022-09-23T10:37:34.768Z,17.41
2022-09-23T10:40:58.226Z,17.52
2022-09-23T10:44:23.503Z,17.46
2022-09-23T10:47:29.392Z,17.53
2022-09-23T10:50:30.627Z,17.53
2022-09-23T10:53:53.876Z,17.37
2022-09-23T10:57:01.949Z,17.44
2022-09-23T11:00:03.456Z,17.41
2022-09-23T11:03:25.303Z,17.22
2022-09-23T11:06:53.092Z,17.53
2022-09-23T11:10:46.560Z,17.63
2022-09-23T11:14:04.358Z,17.77
2022-09-23T11:17:25.918Z,17.78
2022-09-23T11:20:37.743Z,17.83
2022-09-23T11:23:34.687Z,17.61
2022-09-23T11:27:01.263Z,17.70
2022-09-23T11:30:16.913Z,17.91
2022-09-23T11:33:32.678Z,17.98
2022-09-23T11:36:35.678Z,18.00
2022-09-23T11:39:36.646Z,17.82
2022-09-23T11:42:46.904Z,17.83
2022-09-23T11:46:10.332Z,17.79
2022-09-23T11:49:19.190Z,17.94
2022-09-23T11:52:27.958Z,18.11
2022-09-23T11:55:27.515Z,17.98
2022-09-23T11:58:42.363Z,18.23
2022-09-23T12:02:15.073Z,18.31
2022-09-23T12:05:17.786Z,18.20
2022-09-23T12:08:23.389Z,18.33
2022-09-23T12:11:27.318Z,18.42
2022-09-23T12:14:26.740Z,18.63
2022-09-23T12:17:51.612Z,18.57
2022-09-23T12:21:05.669Z,18.55
2022-09-23T12:24:09.245Z,18.44
2022-09-23T12:27:11.020Z,18.36
2022-09-23T12:30:24.858Z,18.23
2022-09-23T12:33:24.575Z,18.38
2022-09-23T12:36:41.343Z,18.57
2022-09-23T12:39:38.645Z,18.58
2022-09-23T12:42:36.738Z,18.63
2022-09-23T12:45:35.489Z,18.63
2022-09-23T12:49:08.686Z,18.30
2022-09-23T12:52:11.814Z,18.04
2022-09-23T12:55:24.445Z,17.91
2022-09-23T12:58:39.239Z,18.31
2022-09-23T13:01:37.012Z,18.46
2022-09-23T13:05:03.764Z,18.53
2022-09-23T13:08:20.848Z,18.39
2022-09-23T13:11:30.777Z,18.27
2022-09-23T13:14:28.639Z,18.00
2022-09-23T13:17:39.173Z,18.17
2022-09-23T13:20:38.347Z,18.23
2022-09-23T13:23:35.407Z,18.09
2022-09-23T13:26:32.087Z,18.07
2022-09-23T13:29:42.532Z,18.17
2022-09-23T13:32:52.009Z,18.29
2022-09-23T13:35:50.885Z,18.24
2022-09-23T13:38:48.391Z,18.13
2022-09-23T13:41:45.308Z,18.17
2022-09-23T13:44:42.038Z,18.33
2022-09-23T13:47:40.298Z,18.45
2022-09-23T13:50:38.649Z,18.65
2022-09-23T13:53:36.025Z,18.39
2022-09-23T13:56:33.667Z,18.36
2022-09-23T13:59:41.634Z,18.04
2022-09-23T14:02:47.023Z,18.14
2022-09-23T14:05:44.025Z,18.44
2022-09-23T14:08:48.276Z,18.65
2022-09-23T14:11:44.965Z,18.75
2022-09-23T14:14:42.043Z,18.85
2022-09-23T14:17:39.101Z,18.62
2022-09-23T14:20:45.850Z,18.59
2022-09-23T14:23:46.364Z,18.38
2022-09-23T14:26:44.269Z,18.11
2022-09-23T14:29:42.730Z,18.12
2022-09-23T14:32:40.791Z,18.25
2022-09-23T14:35:42.847Z,18.51
2022-09-23T14:38:51.883Z,18.56
2022-09-23T14:41:49.337Z,18.67
2022-09-23T14:44:49.775Z,18.58
2022-09-23T14:47:51.947Z,18.66
2022-09-23T14:50:51.400Z,18.65
2022-09-23T14:53:48.815Z,18.79
2022-09-23T14:56:45.868Z,18.94
2022-09-23T14:59:51.832Z,19.05
2022-09-23T15:03:02.030Z,19.00
2022-09-23T15:06:05.061Z,18.95
2022-09-23T15:09:05.328Z,18.66
2022-09-23T15:12:05.795Z,18.59
2022-09-23T15:15:03.584Z,18.74
2022-09-23T15:18:13.735Z,18.66
2022-09-23T15:21:13.129Z,18.45
2022-09-23T15:24:40.435Z,18.31
2022-09-23T15:27:37.204Z,18.26
2022-09-23T15:30:38.207Z,18.36
2022-09-23T15:33:35.943Z,18.39
2022-09-23T15:36:33.336Z,18.48
2022-09-23T15:39:36.246Z,18.53
2022-09-23T15:42:34.428Z,18.74
2022-09-23T15:45:33.914Z,18.74
2022-09-23T15:48:35.905Z,18.86
2022-09-23T15:51:33.272Z,18.95
2022-09-23T15:54:32.406Z,19.03
2022-09-23T15:57:29.368Z,19.05
2022-09-23T16:00:26.181Z,19.05
2022-09-23T16:03:28.446Z,19.06
2022-09-23T16:06:27.031Z,18.92
2022-09-23T16:09:25.144Z,18.80
2022-09-23T16:12:22.509Z,18.74
2022-09-23T16:15:20.884Z,18.68
2022-09-23T16:18:19.265Z,18.61
2022-09-23T16:21:18.472Z,18.52
2022-09-23T16:24:17.525Z,18.53
2022-09-23T16:27:14.524Z,18.52
2022-09-23T16:30:11.784Z,18.47
2022-09-23T16:33:09.214Z,18.44
2022-09-23T16:36:08.027Z,18.41
2022-09-23T16:39:06.933Z,18.39
2022-09-23T16:42:04.932Z,18.38
2022-09-23T16:45:02.361Z,18.44
2022-09-23T16:48:00.055Z,18.47
2022-09-23T16:50:57.375Z,18.43
2022-09-23T16:53:55.586Z,18.33
2022-09-23T16:56:54.266Z,18.28
2022-09-23T17:00:10.231Z,18.42
2022-09-23T17:03:26.232Z,18.38
2022-09-23T17:06:25.110Z,18.19
2022-09-23T17:09:28.839Z,18.11
2022-09-23T17:12:29.051Z,18.05
2022-09-23T17:15:26.726Z,17.96
2022-09-23T17:18:24.757Z,17.92
2022-09-23T17:21:26.815Z,17.88
2022-09-23T17:24:24.190Z,17.86
2022-09-23T17:27:21.485Z,17.85
2022-09-23T17:30:18.655Z,17.84
2022-09-23T17:33:16.657Z,17.87
2022-09-23T17:36:14.745Z,17.90
2022-09-23T17:39:12.724Z,17.90
2022-09-23T17:42:10.299Z,18.00
2022-09-23T17:45:08.672Z,18.00
2022-09-23T17:48:06.493Z,17.91
2022-09-23T17:51:08.236Z,17.81
2022-09-23T17:54:06.324Z,17.77
2022-09-23T17:57:03.536Z,17.71
2022-09-23T18:00:00.353Z,17.71
2022-09-23T18:02:57.516Z,17.84
2022-09-23T18:05:54.649Z,17.88
2022-09-23T18:08:51.646Z,17.89
2022-09-23T18:11:49.940Z,17.88
2022-09-23T18:14:48.332Z,17.87
2022-09-23T18:17:45.669Z,18.01
2022-09-23T18:20:43.106Z,18.10
2022-09-23T18:23:40.606Z,18.03
2022-09-23T18:26:38.255Z,17.97
2022-09-23T18:29:35.664Z,17.89
2022-09-23T18:32:33.481Z,17.88
2022-09-23T18:35:30.778Z,17.76
2022-09-23T18:38:28.687Z,17.62
2022-09-23T18:41:26.995Z,17.46
2022-09-23T18:44:24.999Z,17.37
2022-09-23T18:47:43.682Z,17.31
2022-09-23T18:50:40.306Z,17.09
2022-09-23T18:53:37.295Z,16.94
2022-09-23T18:56:41.025Z,16.93
2022-09-23T18:59:38.370Z,17.05
2022-09-23T19:02:35.431Z,17.06
2022-09-23T19:05:35.426Z,17.39
2022-09-23T19:08:32.612Z,17.69
2022-09-23T19:11:29.180Z,17.86
2022-09-23T19:14:26.753Z,17.89
2022-09-23T19:17:24.478Z,17.75
2022-09-23T19:20:22.784Z,17.62
2022-09-23T19:23:20.703Z,17.43
2022-09-23T19:26:28.484Z,17.38
2022-09-23T19:29:25.524Z,17.37
2022-09-23T19:32:24.605Z,17.18
2022-09-23T19:35:21.286Z,16.98
2022-09-23T19:38:20.181Z,16.81
2022-09-23T19:41:17.396Z,16.67
2022-09-23T19:44:14.906Z,16.52
2022-09-23T19:47:15.701Z,16.45
2022-09-23T19:50:12.830Z,16.31
2022-09-23T19:53:10.551Z,16.38
2022-09-23T19:56:07.493Z,16.47
2022-09-23T19:59:07.262Z,16.39
2022-09-23T20:02:04.406Z,16.44
2022-09-23T20:05:01.910Z,16.66
2022-09-23T20:07:59.838Z,16.55
2022-09-23T20:10:57.664Z,16.40
2022-09-23T20:14:01.785Z,16.32
2022-09-23T20:17:00.394Z,16.26
2022-09-23T20:19:57.975Z,16.35
2022-09-23T20:22:55.683Z,16.56
2022-09-23T20:26:14.995Z,16.60
2022-09-23T20:29:12.847Z,16.60
2022-09-23T20:32:11.302Z,16.56
2022-09-23T20:35:08.860Z,16.93
2022-09-23T20:38:08.152Z,16.96
2022-09-23T20:41:06.778Z,16.83
2022-09-23T20:44:06.223Z,16.71
2022-09-23T20:47:03.618Z,16.71
2022-09-23T20:50:00.450Z,16.64
2022-09-23T20:52:57.977Z,16.78
2022-09-23T20:55:56.563Z,16.78
2022-09-23T20:58:54.287Z,16.76
2022-09-23T21:01:55.527Z,16.71
2022-09-23T21:04:53.470Z,16.79
2022-09-23T21:07:51.229Z,16.80
2022-09-23T21:10:58.269Z,16.83
2022-09-23T21:13:55.555Z,16.87
2022-09-23T21:16:54.723Z,16.71
2022-09-23T21:19:51.744Z,16.50
2022-09-23T21:22:51.540Z,16.27
2022-09-23T21:25:48.394Z,16.05
2022-09-23T21:28:47.077Z,15.99
2022-09-23T21:31:45.063Z,16.09
2022-09-23T21:34:42.963Z,16.22
2022-09-23T21:37:40.714Z,16.25
2022-09-23T21:40:55.945Z,16.16
2022-09-23T21:43:55.628Z,16.34
2022-09-23T21:46:54.378Z,16.39
2022-09-23T21:49:51.905Z,16.48
2022-09-23T21:52:51.954Z,16.52
2022-09-23T21:55:49.895Z,16.36
2022-09-23T21:58:47.437Z,16.06
2022-09-23T22:01:53.998Z,15.82
2022-09-23T22:04:51.610Z,15.83
2022-09-23T22:07:48.442Z,15.93
2022-09-23T22:10:45.655Z,16.00
2022-09-23T22:13:42.670Z,15.97
2022-09-23T22:16:39.929Z,16.05
2022-09-23T22:19:42.744Z,16.01
2022-09-23T22:22:43.995Z,15.98
2022-09-23T22:25:41.919Z,16.02
2022-09-23T22:28:57.986Z,15.92
2022-09-23T22:32:14.622Z,15.70
2022-09-23T22:35:12.965Z,15.48
2022-09-23T22:38:10.899Z,15.30
2022-09-23T22:41:08.472Z,15.22
2022-09-23T22:44:05.526Z,15.12
2022-09-23T22:47:03.167Z,15.06
2022-09-23T22:50:01.021Z,15.10
2022-09-23T22:52:58.873Z,15.05
2022-09-23T22:56:02.033Z,15.10
2022-09-23T22:59:06.031Z,15.18
2022-09-23T23:02:04.003Z,15.06
2022-09-23T23:05:02.285Z,14.96
2022-09-23T23:07:59.456Z,14.99
2022-09-23T23:10:57.200Z,15.03
2022-09-23T23:13:54.697Z,15.12
2022-09-23T23:16:52.156Z,15.04
2022-09-23T23:19:51.015Z,14.98
2022-09-23T23:22:48.607Z,14.94
2022-09-23T23:25:45.618Z,14.84
2022-09-23T23:28:43.642Z,14.85
2022-09-23T23:31:40.832Z,14.85
2022-09-23T23:34:37.645Z,14.82
2022-09-23T23:37:34.656Z,14.83
2022-09-23T23:40:31.586Z,14.90
2022-09-23T23:43:28.698Z,15.01
2022-09-23T23:46:27.736Z,15.02
2022-09-23T23:49:24.483Z,15.09
2022-09-23T23:52:21.657Z,15.16
2022-09-23T23:55:20.022Z,15.27
2022-09-23T23:58:18.138Z,15.44
